LFRS 170600Z AUTO 29013KT CAVOK 07/02 Q1016 TEMPO 28022G35KT 4000 SHRA BKN014 BKN020TCU